Time;durP1;ratioP1;P1;durP2;ratioP2;P2;SDS_P1;SDS_P2;PMS_P1;PMS_P2;Temp;Humidity;BMP_temperature;BMP_pressure;BME280_temperature;BME280_humidity;BME280_pressure;Samples;Min_cycle;Max_cycle;Signal;HPM_P1;HPM_P2
2022/10/29 00:01:32;;;;;;;10.02;3.67;;;11.60;99.90;;;;;;5054740;28;20025;-89
2022/10/29 00:03:57;;;;;;;11.23;3.17;;;11.60;99.90;;;;;;5054993;28;20071;-89
2022/10/29 00:06:23;;;;;;;16.27;3.60;;;11.60;99.90;;;;;;5054826;28;20083;-89
2022/10/29 00:08:48;;;;;;;9.93;3.33;;;11.50;99.90;;;;;;5054607;28;20017;-89
2022/10/29 00:11:19;;;;;;;9.10;3.33;;;11.50;99.90;;;;;;5054578;28;20650;-89
2022/10/29 00:13:48;;;;;;;8.23;3.50;;;11.50;99.90;;;;;;5054427;28;20021;-89
2022/10/29 00:16:15;;;;;;;10.25;3.42;;;11.40;99.90;;;;;;5053943;28;20021;-89
2022/10/29 00:18:41;;;;;;;11.07;3.85;;;11.40;99.90;;;;;;5041550;28;20033;-89
2022/10/29 00:21:11;;;;;;;7.70;3.55;;;11.40;99.90;;;;;;5038284;28;20026;-89
2022/10/29 00:23:37;;;;;;;10.68;3.97;;;11.40;99.90;;;;;;5052103;28;20374;-89
2022/10/29 00:26:03;;;;;;;13.85;3.53;;;11.40;99.90;;;;;;5044071;28;20032;-89
2022/10/29 00:28:29;;;;;;;15.95;4.82;;;11.40;99.90;;;;;;5046304;28;21343;-89
2022/10/29 00:30:55;;;;;;;14.60;3.25;;;11.40;99.90;;;;;;5043715;28;20037;-89
2022/10/29 00:33:20;;;;;;;13.00;3.20;;;11.30;99.90;;;;;;5054298;28;20083;-89
2022/10/29 00:36:04;;;;;;;11.40;3.17;;;11.30;99.90;;;;;;5054039;28;20043;-89
2022/10/29 00:38:31;;;;;;;11.98;3.40;;;11.30;99.90;;;;;;5054057;28;20061;-89
2022/10/29 00:40:57;;;;;;;12.98;3.40;;;11.30;99.90;;;;;;5052574;28;20028;-89
2022/10/29 00:43:25;;;;;;;11.57;3.50;;;11.30;99.90;;;;;;5053835;28;20033;-89
2022/10/29 00:46:00;;;;;;;8.93;3.10;;;11.20;99.90;;;;;;5054475;28;20549;-89
2022/10/29 00:48:28;;;;;;;10.20;3.58;;;11.20;99.90;;;;;;5054394;28;20087;-89
2022/10/29 00:50:55;;;;;;;10.65;3.70;;;11.20;99.90;;;;;;5054098;28;20045;-89
2022/10/29 00:53:25;;;;;;;12.27;3.70;;;11.10;99.90;;;;;;5054150;28;20029;-89
2022/10/29 00:55:51;;;;;;;14.27;4.18;;;11.10;99.90;;;;;;5054603;28;20369;-89
2022/10/29 00:58:17;;;;;;;9.30;3.30;;;11.00;99.90;;;;;;5054119;28;20104;-89
2022/10/29 01:00:43;;;;;;;10.65;3.83;;;11.00;99.90;;;;;;5053808;28;20021;-89
2022/10/29 01:03:09;;;;;;;8.13;3.13;;;11.00;99.90;;;;;;5053932;28;20048;-89
2022/10/29 01:05:36;;;;;;;10.88;3.38;;;11.00;99.90;;;;;;5054076;28;20029;-83
2022/10/29 01:08:02;;;;;;;10.38;3.38;;;10.90;99.90;;;;;;5054579;28;20021;-83
2022/10/29 01:10:58;;;;;;;10.50;3.63;;;10.90;99.90;;;;;;5054159;28;20135;-83
2022/10/29 01:13:32;;;;;;;17.27;4.00;;;10.90;99.90;;;;;;5054454;28;20029;-83
2022/10/29 01:16:23;;;;;;;8.77;3.47;;;10.90;99.90;;;;;;5054494;28;20104;-83
2022/10/29 01:19:12;;;;;;;7.38;3.00;;;10.80;99.90;;;;;;5054102;28;20103;-83
2022/10/29 01:21:55;;;;;;;5.82;3.05;;;10.80;99.90;;;;;;5054351;28;20044;-83
2022/10/29 01:24:41;;;;;;;12.45;3.95;;;10.80;99.90;;;;;;5054270;28;20028;-83
2022/10/29 01:27:36;;;;;;;11.73;3.95;;;10.80;99.90;;;;;;5054251;28;20368;-83
2022/10/29 01:30:20;;;;;;;10.45;3.10;;;10.70;99.90;;;;;;5053891;28;20100;-83
2022/10/29 01:32:52;;;;;;;14.32;3.92;;;10.70;99.90;;;;;;5054343;28;20090;-83
2022/10/29 01:35:34;;;;;;;11.20;3.15;;;10.70;99.90;;;;;;5054000;28;20032;-83
2022/10/29 01:38:06;;;;;;;11.23;3.28;;;10.70;99.90;;;;;;5054218;28;20114;-83
2022/10/29 01:40:49;;;;;;;10.43;3.28;;;10.70;99.90;;;;;;5054021;28;20059;-83
2022/10/29 01:43:35;;;;;;;14.60;3.13;;;10.60;99.90;;;;;;5053260;28;20025;-83
2022/10/29 01:46:13;;;;;;;8.60;2.85;;;10.60;99.90;;;;;;5053691;28;20032;-83
2022/10/29 01:48:44;;;;;;;14.10;3.42;;;10.60;99.90;;;;;;5053897;28;20107;-83
2022/10/29 01:51:19;;;;;;;9.77;3.40;;;10.60;99.90;;;;;;5053512;28;20542;-83
2022/10/29 01:53:45;;;;;;;9.48;3.60;;;10.60;99.90;;;;;;5053562;28;20370;-83
2022/10/29 01:56:11;;;;;;;11.02;2.97;;;10.60;99.90;;;;;;5053504;28;20102;-83
2022/10/29 01:58:38;;;;;;;11.35;3.97;;;10.60;99.90;;;;;;5053560;28;20509;-83
2022/10/29 02:01:34;;;;;;;14.88;4.07;;;10.60;99.90;;;;;;5053659;28;20024;-83
2022/10/29 02:04:28;;;;;;;13.98;3.03;;;10.60;99.90;;;;;;5052597;28;20048;-83
2022/10/29 02:06:59;;;;;;;12.13;3.38;;;10.60;99.90;;;;;;5053557;28;20130;-83
2022/10/29 02:09:34;;;;;;;8.80;2.97;;;10.70;99.90;;;;;;5053492;28;20036;-83
2022/10/29 02:12:31;;;;;;;11.85;4.00;;;10.70;99.90;;;;;;5053319;28;20111;-83
2022/10/29 02:15:17;;;;;;;13.15;3.30;;;10.70;99.90;;;;;;5053456;28;20029;-83
2022/10/29 02:17:42;;;;;;;;;;;10.70;99.90;;;;;;5053396;28;20029;-83
2022/10/29 02:20:11;;;;;;;10.38;3.08;;;10.70;99.90;;;;;;5053196;28;19927;-83
2022/10/29 02:22:37;;;;;;;11.85;3.45;;;10.60;99.90;;;;;;5052987;28;20060;-83
2022/10/29 02:25:05;;;;;;;14.85;3.35;;;10.70;99.90;;;;;;5053126;28;20075;-83
2022/10/29 02:27:30;;;;;;;13.82;3.50;;;10.60;99.90;;;;;;5052903;28;20036;-83
2022/10/29 02:29:56;;;;;;;16.48;3.28;;;10.60;99.90;;;;;;5053258;28;20033;-83
2022/10/29 02:32:21;;;;;;;11.43;3.28;;;10.60;99.90;;;;;;5053267;28;20025;-84
2022/10/29 02:34:47;;;;;;;12.75;2.85;;;10.60;99.90;;;;;;5052905;28;20025;-83
2022/10/29 02:37:13;;;;;;;10.45;3.33;;;10.60;99.90;;;;;;5052992;28;20088;-83
2022/10/29 02:39:38;;;;;;;12.65;3.35;;;10.60;99.90;;;;;;5053841;28;20029;-83
2022/10/29 02:42:04;;;;;;;9.43;3.35;;;10.70;99.90;;;;;;5052804;28;20025;-83
2022/10/29 02:44:29;;;;;;;13.02;2.78;;;10.70;99.90;;;;;;5053034;28;20029;-83
2022/10/29 02:46:55;;;;;;;14.15;3.60;;;10.70;99.90;;;;;;5053248;28;20033;-83
2022/10/29 02:49:20;;;;;;;10.50;3.10;;;10.80;99.90;;;;;;5052886;28;20053;-83
2022/10/29 02:51:46;;;;;;;12.48;3.40;;;10.80;99.90;;;;;;5052537;28;20045;-83
2022/10/29 02:54:12;;;;;;;15.38;4.75;;;10.80;99.90;;;;;;5053629;28;20037;-82
2022/10/29 02:56:37;;;;;;;7.80;2.53;;;10.90;99.90;;;;;;5056805;28;20033;-83
2022/10/29 02:59:03;;;;;;;9.73;2.95;;;10.90;99.90;;;;;;5056607;28;20071;-82
2022/10/29 03:01:28;;;;;;;18.25;3.67;;;10.90;99.90;;;;;;5057038;28;20017;-82
2022/10/29 03:03:54;;;;;;;9.55;3.25;;;10.80;99.90;;;;;;5054987;28;20024;-88
2022/10/29 03:06:20;;;;;;;12.90;3.83;;;10.80;99.90;;;;;;5055946;28;20453;-89
2022/10/29 03:08:46;;;;;;;11.30;2.70;;;10.80;99.90;;;;;;5056054;28;20021;-88
2022/10/29 03:11:12;;;;;;;10.68;3.08;;;10.90;99.90;;;;;;5055823;28;20361;-88
2022/10/29 03:13:38;;;;;;;15.43;3.70;;;10.90;99.90;;;;;;5055815;28;20021;-88
2022/10/29 03:16:04;;;;;;;10.93;3.42;;;10.90;99.90;;;;;;5049338;28;20032;-89
2022/10/29 03:18:29;;;;;;;8.30;2.92;;;11.00;99.90;;;;;;5055656;28;20071;-89
2022/10/29 03:20:55;;;;;;;13.27;3.72;;;11.10;99.90;;;;;;5055730;28;20106;-89
2022/10/29 03:23:21;;;;;;;10.43;3.35;;;11.10;99.90;;;;;;5052912;28;20126;-89
2022/10/29 03:25:52;;;;;;;8.00;2.88;;;11.10;99.90;;;;;;5035670;28;20155;-88
2022/10/29 03:28:18;;;;;;;13.73;3.15;;;11.10;99.90;;;;;;5035852;28;20105;-89
2022/10/29 03:30:44;;;;;;;11.50;3.28;;;11.10;99.90;;;;;;5041614;28;20040;-88
2022/10/29 03:33:09;;;;;;;12.50;3.65;;;11.10;99.90;;;;;;5035449;28;20026;-88
2022/10/29 03:35:35;;;;;;;11.85;3.13;;;11.10;99.90;;;;;;5035193;28;20064;-88
2022/10/29 03:38:00;;;;;;;9.68;3.08;;;11.10;99.90;;;;;;5035017;28;20040;-89
2022/10/29 03:40:26;;;;;;;9.80;3.03;;;11.10;99.90;;;;;;5052237;28;20025;-88
2022/10/29 03:42:51;;;;;;;8.02;3.55;;;11.00;99.90;;;;;;5055017;28;20021;-88
2022/10/29 03:45:17;;;;;;;13.38;2.78;;;11.00;99.90;;;;;;5055736;28;20025;-88
2022/10/29 03:47:43;;;;;;;10.07;3.65;;;11.00;99.90;;;;;;5055642;28;20075;-89
2022/10/29 03:50:08;;;;;;;10.05;3.10;;;10.90;99.90;;;;;;5055588;28;20028;-89
2022/10/29 03:52:34;;;;;;;21.88;4.20;;;10.90;99.90;;;;;;5055410;28;20060;-88
2022/10/29 03:55:00;;;;;;;16.42;3.05;;;10.90;99.90;;;;;;5055396;28;20083;-89
2022/10/29 03:57:25;;;;;;;12.73;3.40;;;10.90;99.90;;;;;;5055504;28;20032;-89
2022/10/29 03:59:51;;;;;;;9.55;3.78;;;10.90;99.90;;;;;;5055557;28;20029;-88
2022/10/29 04:02:16;;;;;;;10.32;2.85;;;10.90;99.90;;;;;;5055779;28;20092;-89
2022/10/29 04:04:42;;;;;;;10.13;3.13;;;10.90;99.90;;;;;;5055708;28;20077;-89
2022/10/29 04:07:07;;;;;;;13.75;3.88;;;10.90;99.90;;;;;;5054512;28;20033;-89
2022/10/29 04:09:33;;;;;;;15.07;4.03;;;11.00;99.90;;;;;;5055678;28;20375;-89
2022/10/29 04:11:59;;;;;;;9.95;3.78;;;11.00;99.90;;;;;;5055455;28;20032;-89
2022/10/29 04:14:25;;;;;;;16.33;4.03;;;11.00;99.90;;;;;;5055183;28;20132;-88
2022/10/29 04:16:51;;;;;;;11.65;2.72;;;11.00;99.90;;;;;;5055397;28;20104;-89
2022/10/29 04:19:16;;;;;;;11.25;2.88;;;11.00;99.90;;;;;;5055567;28;20021;-88
2022/10/29 04:21:42;;;;;;;11.40;3.40;;;11.00;99.90;;;;;;5055357;28;20024;-88
2022/10/29 04:24:08;;;;;;;12.38;3.67;;;11.00;99.90;;;;;;5055225;28;20017;-88
2022/10/29 04:26:33;;;;;;;14.82;3.55;;;11.00;99.90;;;;;;5055172;28;20442;-88
2022/10/29 04:28:59;;;;;;;10.65;3.22;;;11.00;99.90;;;;;;5053821;28;20025;-89
2022/10/29 04:31:25;;;;;;;11.30;3.28;;;11.00;99.90;;;;;;5047283;28;20032;-88
2022/10/29 04:33:54;;;;;;;7.47;3.05;;;11.00;99.90;;;;;;5053135;28;20029;-89
2022/10/29 04:36:19;;;;;;;19.15;3.80;;;11.00;99.90;;;;;;5053757;28;20074;-88
2022/10/29 04:38:45;;;;;;;8.93;2.90;;;11.00;99.90;;;;;;5054114;28;20036;-89
2022/10/29 04:41:10;;;;;;;7.07;3.05;;;11.00;99.90;;;;;;5053420;28;20103;-88
2022/10/29 04:43:36;;;;;;;8.48;2.65;;;11.00;99.90;;;;;;5052849;28;20434;-88
2022/10/29 04:46:02;;;;;;;11.20;3.58;;;11.00;99.90;;;;;;5052742;28;20099;-88
2022/10/29 04:48:28;;;;;;;10.43;3.28;;;11.10;99.90;;;;;;5053274;28;20137;-89
2022/10/29 04:50:54;;;;;;;9.93;3.08;;;11.10;99.90;;;;;;5053722;28;20036;-88
2022/10/29 04:53:20;;;;;;;13.27;3.72;;;11.10;99.90;;;;;;5054134;28;20777;-88
2022/10/29 04:55:46;;;;;;;13.05;4.10;;;11.10;99.90;;;;;;5053794;28;20064;-89
2022/10/29 04:58:16;;;;;;;16.20;3.95;;;11.10;99.90;;;;;;5052442;28;20133;-88
2022/10/29 05:00:42;;;;;;;8.98;3.03;;;11.10;99.90;;;;;;5054042;28;20017;-88
2022/10/29 05:03:08;;;;;;;11.25;3.70;;;11.10;99.90;;;;;;5054088;28;20070;-88
2022/10/29 05:05:36;;;;;;;10.05;3.47;;;11.10;99.90;;;;;;5053990;28;20036;-89
2022/10/29 05:08:03;;;;;;;12.15;4.32;;;11.10;99.90;;;;;;5053738;28;20033;-88
2022/10/29 05:10:31;;;;;;;11.13;3.55;;;11.10;99.90;;;;;;5053588;28;20044;-89
2022/10/29 05:13:02;;;;;;;13.63;3.63;;;11.10;99.90;;;;;;5053768;28;20106;-89
2022/10/29 05:15:29;;;;;;;12.95;3.08;;;11.10;99.90;;;;;;5053826;28;20396;-89
2022/10/29 05:17:56;;;;;;;9.68;3.30;;;11.10;99.90;;;;;;5053544;28;20037;-89
2022/10/29 05:20:22;;;;;;;7.68;3.22;;;11.00;99.90;;;;;;5053572;28;20512;-89
2022/10/29 05:22:48;;;;;;;15.15;2.83;;;11.00;99.90;;;;;;5053406;28;20086;-89
2022/10/29 05:25:13;;;;;;;8.20;2.80;;;11.00;99.90;;;;;;5053565;28;20021;-89
2022/10/29 05:27:39;;;;;;;10.77;3.42;;;11.00;99.90;;;;;;5053963;28;20179;-83
2022/10/29 05:30:05;;;;;;;15.00;3.47;;;11.00;99.90;;;;;;5054276;28;20028;-84
2022/10/29 05:32:31;;;;;;;11.60;3.42;;;11.00;99.90;;;;;;5054246;28;20032;-84
2022/10/29 05:34:57;;;;;;;11.85;3.20;;;11.00;99.90;;;;;;5054217;28;20033;-84
2022/10/29 05:37:26;;;;;;;12.60;3.53;;;11.00;99.90;;;;;;5053787;28;20102;-87
2022/10/29 05:39:52;;;;;;;13.82;3.50;;;11.00;99.90;;;;;;5052581;28;20127;-84
2022/10/29 05:42:18;;;;;;;12.80;3.70;;;11.00;99.90;;;;;;5053894;28;20028;-88
2022/10/29 05:44:44;;;;;;;11.57;4.55;;;11.00;99.90;;;;;;5053851;28;20029;-85
2022/10/29 05:47:09;;;;;;;14.95;5.05;;;11.10;99.90;;;;;;5054167;28;20107;-85
2022/10/29 05:49:35;;;;;;;16.10;5.32;;;11.10;99.90;;;;;;5053947;28;20029;-85
2022/10/29 05:52:00;;;;;;;16.20;5.57;;;11.10;99.90;;;;;;5053692;28;20355;-85
2022/10/29 05:54:26;;;;;;;16.23;5.30;;;11.10;99.90;;;;;;5054094;28;20017;-85
2022/10/29 05:56:52;;;;;;;10.68;3.97;;;11.10;99.90;;;;;;5053622;28;20029;-85
2022/10/29 05:59:17;;;;;;;13.40;4.30;;;11.10;99.90;;;;;;5053610;28;20021;-85
2022/10/29 06:01:43;;;;;;;10.77;3.58;;;11.10;99.90;;;;;;5053588;28;20488;-85
2022/10/29 06:04:08;;;;;;;15.18;3.72;;;11.10;99.90;;;;;;5053849;28;20523;-85
2022/10/29 06:06:34;;;;;;;13.73;4.25;;;11.10;99.90;;;;;;5053515;28;20092;-85
2022/10/29 06:08:59;;;;;;;11.02;4.07;;;11.10;99.90;;;;;;5053657;28;20120;-91
2022/10/29 06:11:25;;;;;;;15.90;4.47;;;11.10;99.90;;;;;;5052310;28;20021;-91
2022/10/29 06:13:54;;;;;;;14.98;5.32;;;11.10;99.90;;;;;;5053511;28;20445;-91
2022/10/29 06:16:20;;;;;;;11.48;4.82;;;11.20;99.90;;;;;;5052264;28;20017;-91
2022/10/29 06:18:46;;;;;;;22.48;5.70;;;11.10;99.90;;;;;;5048128;28;20032;-92
2022/10/29 06:21:11;;;;;;;15.32;5.20;;;11.10;99.90;;;;;;5050340;28;20974;-91
2022/10/29 06:23:37;;;;;;;18.23;4.43;;;11.10;99.90;;;;;;5049330;28;20112;-91
2022/10/29 06:26:02;;;;;;;17.85;5.50;;;11.20;99.90;;;;;;5050239;28;20040;-90
2022/10/29 06:28:28;;;;;;;10.98;4.47;;;11.20;99.90;;;;;;5049774;28;20021;-91
2022/10/29 06:30:54;;;;;;;10.98;4.00;;;11.20;99.90;;;;;;5050251;28;20033;-91
2022/10/29 06:33:20;;;;;;;15.20;4.50;;;11.20;99.90;;;;;;5050218;28;20040;-91
2022/10/29 06:35:46;;;;;;;13.75;3.88;;;11.20;99.90;;;;;;5050372;28;20035;-91
2022/10/29 06:38:11;;;;;;;12.13;4.35;;;11.30;99.90;;;;;;5049676;28;20033;-91
2022/10/29 06:40:37;;;;;;;12.23;3.80;;;11.30;99.90;;;;;;5050267;28;20040;-92
2022/10/29 06:43:06;;;;;;;9.80;3.22;;;11.30;99.90;;;;;;5048476;28;20104;-92
2022/10/29 06:45:32;;;;;;;12.70;3.75;;;11.30;99.90;;;;;;5048731;28;20050;-91
2022/10/29 06:47:58;;;;;;;10.80;3.75;;;11.40;99.90;;;;;;5049612;28;20387;-91
2022/10/29 06:50:24;;;;;;;15.00;3.95;;;11.50;99.90;;;;;;5049192;28;20108;-92
2022/10/29 06:53:02;;;;;;;8.27;3.22;;;11.50;99.90;;;;;;5049018;28;20386;-91
2022/10/29 06:55:28;;;;;;;17.95;4.05;;;11.60;99.90;;;;;;5047656;28;20029;-91
2022/10/29 06:58:03;;;;;;;16.02;3.92;;;11.70;99.90;;;;;;5051387;28;20393;-91
2022/10/29 07:00:30;;;;;;;22.45;4.28;;;11.80;99.90;;;;;;5032890;28;20747;-91
2022/10/29 07:02:56;;;;;;;13.02;4.20;;;11.90;99.90;;;;;;5035495;28;20087;-91
2022/10/29 07:05:22;;;;;;;19.08;4.20;;;12.00;99.90;;;;;;5043982;28;20316;-91
2022/10/29 07:07:48;;;;;;;16.10;4.55;;;12.10;99.90;;;;;;5040589;28;20371;-91
2022/10/29 07:10:15;;;;;;;11.23;3.88;;;12.20;99.90;;;;;;5029979;28;20386;-91
2022/10/29 07:12:41;;;;;;;23.63;5.10;;;12.30;99.90;;;;;;5037955;28;20022;-91
2022/10/29 07:15:08;;;;;;;17.38;4.05;;;12.40;99.90;;;;;;5032456;28;20040;-91
2022/10/29 07:17:33;;;;;;;12.73;4.00;;;12.50;99.90;;;;;;5038809;28;20036;-91
2022/10/29 07:19:59;;;;;;;18.73;4.65;;;12.60;99.90;;;;;;5047836;28;20025;-91
2022/10/29 07:22:24;;;;;;;21.55;4.95;;;12.70;99.90;;;;;;5045191;28;20463;-91
2022/10/29 07:24:50;;;;;;;13.23;4.43;;;12.80;99.90;;;;;;5032871;28;20029;-91
2022/10/29 07:27:16;;;;;;;11.15;3.85;;;12.90;99.90;;;;;;5037664;28;20033;-88
2022/10/29 07:29:41;;;;;;;17.05;3.65;;;12.90;99.90;;;;;;5042513;28;20330;-87
2022/10/29 07:32:07;;;;;;;13.48;4.20;;;13.00;99.90;;;;;;5032252;28;20025;-92
2022/10/29 07:34:32;;;;;;;20.75;5.00;;;13.10;99.90;;;;;;5033581;28;20101;-87
2022/10/29 07:36:58;;;;;;;19.13;4.30;;;13.20;99.90;;;;;;5052517;28;20029;-89
2022/10/29 07:39:23;;;;;;;16.52;4.20;;;13.30;99.90;;;;;;5052627;28;20029;-88
2022/10/29 07:41:49;;;;;;;12.15;3.90;;;13.40;99.90;;;;;;5055302;28;20103;-89
2022/10/29 07:44:15;;;;;;;12.15;4.15;;;13.50;99.90;;;;;;5056466;28;20028;-88
2022/10/29 07:46:40;;;;;;;12.82;4.03;;;13.60;99.90;;;;;;5056733;28;20021;-88
2022/10/29 07:49:06;;;;;;;16.90;6.05;;;13.80;99.90;;;;;;5056585;28;20029;-88
2022/10/29 07:51:31;;;;;;;19.25;8.15;;;13.90;99.90;;;;;;5056244;28;20128;-88
2022/10/29 07:53:57;;;;;;;15.13;5.40;;;14.00;99.90;;;;;;5056337;28;20025;-89
2022/10/29 07:56:22;;;;;;;16.83;5.60;;;14.10;99.90;;;;;;5056598;28;20467;-88
2022/10/29 07:58:48;;;;;;;20.10;6.00;;;14.20;99.90;;;;;;5056524;28;20032;-88
2022/10/29 08:01:13;;;;;;;17.48;3.90;;;14.30;99.90;;;;;;5057384;28;20027;-89
2022/10/29 08:03:39;;;;;;;16.65;4.43;;;14.40;99.90;;;;;;5056239;28;20029;-88
2022/10/29 08:06:05;;;;;;;11.35;3.35;;;14.40;99.90;;;;;;5056035;28;20087;-88
2022/10/29 08:08:33;;;;;;;14.20;3.97;;;14.40;99.90;;;;;;5055852;28;20028;-89
2022/10/29 08:11:00;;;;;;;16.02;4.97;;;14.50;99.90;;;;;;5055454;28;20515;-86
2022/10/29 08:13:26;;;;;;;13.43;4.05;;;14.60;99.90;;;;;;5055766;28;20098;-86
2022/10/29 08:15:52;;;;;;;10.48;3.30;;;14.60;99.90;;;;;;5041371;28;20030;-86
2022/10/29 08:18:17;;;;;;;10.20;4.00;;;14.70;99.90;;;;;;5035412;28;20084;-85
2022/10/29 08:20:44;;;;;;;13.05;4.05;;;14.70;99.90;;;;;;5037722;28;20037;-79
2022/10/29 08:23:12;;;;;;;12.57;3.47;;;14.70;99.90;;;;;;5055618;28;20025;-82
2022/10/29 08:25:40;;;;;;;14.13;3.90;;;14.70;99.90;;;;;;5055280;28;20029;-82
2022/10/29 08:28:08;;;;;;;11.77;3.83;;;14.80;99.90;;;;;;5055298;28;20032;-82
2022/10/29 08:30:34;;;;;;;15.55;4.10;;;14.80;99.90;;;;;;5047278;28;20025;-82
2022/10/29 08:33:00;;;;;;;14.85;3.85;;;14.80;99.90;;;;;;5035147;28;20053;-82
2022/10/29 08:35:25;;;;;;;13.90;3.75;;;14.90;99.90;;;;;;5036549;28;20048;-82
2022/10/29 08:37:51;;;;;;;14.48;4.07;;;14.90;99.90;;;;;;5055140;28;20029;-84
2022/10/29 08:40:27;;;;;;;15.40;4.38;;;15.00;99.90;;;;;;5054482;28;20449;-82
2022/10/29 08:43:16;;;;;;;15.10;4.15;;;15.00;99.90;;;;;;5063311;28;20021;-82
2022/10/29 08:45:50;;;;;;;12.48;3.97;;;15.20;99.90;;;;;;5062159;28;20037;-82
2022/10/29 08:48:40;;;;;;;14.05;4.25;;;15.20;99.90;;;;;;5061684;28;20369;-82
2022/10/29 08:51:36;;;;;;;13.48;3.78;;;15.40;99.90;;;;;;5033351;28;20574;-82
2022/10/29 08:54:02;;;;;;;10.80;3.88;;;15.40;99.90;;;;;;5025932;28;20118;-83
2022/10/29 08:56:36;;;;;;;16.77;3.85;;;15.50;99.90;;;;;;5034797;28;20025;-83
2022/10/29 08:59:12;;;;;;;16.13;3.97;;;15.50;99.90;;;;;;5034822;28;20034;-83
2022/10/29 09:01:38;;;;;;;13.27;3.97;;;15.60;99.90;;;;;;5034837;28;20033;-84
2022/10/29 09:04:29;;;;;;;23.25;4.05;;;15.60;99.90;;;;;;5042549;28;20338;-83
2022/10/29 09:07:24;;;;;;;13.00;4.90;;;15.70;99.90;;;;;;5054738;28;20074;-83
2022/10/29 09:10:01;;;;;;;11.60;4.50;;;15.70;99.90;;;;;;5054833;28;20063;-84
2022/10/29 09:13:03;;;;;;;13.60;4.45;;;15.80;99.90;;;;;;5055095;28;20058;-84
2022/10/29 09:15:33;;;;;;;20.92;4.85;;;15.90;99.90;;;;;;5054882;28;20021;-83
2022/10/29 09:18:20;;;;;;;16.25;4.47;;;16.00;99.90;;;;;;5054615;28;20032;-84
2022/10/29 09:21:16;;;;;;;11.93;4.60;;;16.20;99.90;;;;;;5056367;28;20021;-84
2022/10/29 09:23:57;;;;;;;20.48;5.20;;;16.30;99.90;;;;;;5055077;28;20114;-82
2022/10/29 09:26:56;;;;;;;16.00;4.03;;;16.50;99.90;;;;;;5054618;28;20106;-82
2022/10/29 09:29:52;;;;;;;14.30;4.43;;;16.70;99.90;;;;;;5054925;28;20358;-83
2022/10/29 09:32:43;;;;;;;27.70;4.80;;;16.80;99.90;;;;;;5049384;28;20051;-84
2022/10/29 09:35:15;;;;;;;17.80;4.32;;;16.90;99.90;;;;;;5053596;28;20031;-85
2022/10/29 09:37:56;;;;;;;19.58;4.82;;;17.00;99.90;;;;;;5054032;28;20032;-85
2022/10/29 09:40:30;;;;;;;14.73;4.95;;;17.10;99.90;;;;;;5052812;28;20017;-84
2022/10/29 09:42:59;;;;;;;23.30;5.57;;;17.20;99.90;;;;;;5053967;28;20100;-84
2022/10/29 09:45:35;;;;;;;9.25;3.35;;;17.20;99.90;;;;;;5053857;28;20086;-84
2022/10/29 09:48:08;;;;;;;9.85;3.28;;;17.40;99.90;;;;;;5053727;28;20365;-85
2022/10/29 09:50:34;;;;;;;12.50;3.08;;;17.50;99.90;;;;;;5053534;28;20024;-84
2022/10/29 09:53:00;;;;;;;11.45;2.83;;;17.70;99.90;;;;;;5053893;28;20021;-81
2022/10/29 09:55:33;;;;;;;11.38;3.20;;;17.80;99.90;;;;;;5053622;28;20481;-83
2022/10/29 09:57:58;;;;;;;10.10;2.75;;;18.00;99.90;;;;;;5053861;28;20029;-83
2022/10/29 10:00:25;;;;;;;14.23;3.55;;;18.20;99.90;;;;;;5054355;28;20021;-82
2022/10/29 10:02:53;;;;;;;13.27;2.90;;;18.40;99.90;;;;;;5054924;28;20017;-84
2022/10/29 10:05:25;;;;;;;12.52;2.70;;;18.60;99.90;;;;;;5056110;28;20076;-84
2022/10/29 10:08:06;;;;;;;14.75;3.28;;;18.80;99.90;;;;;;5060675;28;20048;-84
2022/10/29 10:10:33;;;;;;;12.23;2.70;;;18.90;99.90;;;;;;5056973;28;20036;-84
2022/10/29 10:13:05;;;;;;;12.20;3.20;;;19.00;99.90;;;;;;5054934;28;20029;-83
2022/10/29 10:15:35;;;;;;;12.68;3.78;;;19.10;99.90;;;;;;5056900;28;20023;-84
2022/10/29 10:18:15;;;;;;;10.60;3.30;;;19.30;99.90;;;;;;5056225;28;20025;-84
2022/10/29 10:20:47;;;;;;;13.82;2.78;;;19.50;99.90;;;;;;5056853;28;20065;-84
2022/10/29 10:23:29;;;;;;;16.60;3.88;;;19.70;99.90;;;;;;5033712;28;20033;-82
2022/10/29 10:25:56;;;;;;;13.27;2.95;;;19.80;99.90;;;;;;5033138;28;20099;-82
2022/10/29 10:28:30;;;;;;;12.90;3.22;;;20.00;99.90;;;;;;5033391;28;20021;-82
2022/10/29 10:31:12;;;;;;;11.60;3.20;;;20.20;99.90;;;;;;5033088;28;20033;-84
2022/10/29 10:33:52;;;;;;;14.13;3.08;;;20.30;99.90;;;;;;5033323;28;20339;-83
2022/10/29 10:36:22;;;;;;;14.05;3.55;;;20.50;99.90;;;;;;5033373;28;20367;-84
2022/10/29 10:38:53;;;;;;;12.00;3.00;;;20.60;99.90;;;;;;5032917;28;20029;-84
2022/10/29 10:41:28;;;;;;;11.00;2.78;;;20.70;99.90;;;;;;5032992;28;20028;-84
2022/10/29 10:44:01;;;;;;;13.65;2.80;;;20.70;99.90;;;;;;5033270;28;20417;-84
2022/10/29 10:46:32;;;;;;;12.18;3.33;;;20.90;99.90;;;;;;5033632;28;20029;-84
2022/10/29 10:49:06;;;;;;;17.35;3.33;;;21.00;99.90;;;;;;5033153;28;20075;-84
2022/10/29 10:51:34;;;;;;;15.07;3.50;;;21.10;99.90;;;;;;5032732;28;20068;-84
2022/10/29 10:54:05;;;;;;;10.23;2.53;;;21.30;99.90;;;;;;5033346;28;20374;-84
2022/10/29 10:56:31;;;;;;;14.57;3.40;;;21.40;99.90;;;;;;5033222;28;20028;-83
2022/10/29 10:59:15;;;;;;;15.63;3.28;;;21.40;99.90;;;;;;5033415;28;20029;-83
2022/10/29 11:01:47;;;;;;;18.30;3.55;;;21.60;99.90;;;;;;5032853;28;20508;-83
2022/10/29 11:04:33;;;;;;;16.08;4.05;;;21.70;99.90;;;;;;5032885;28;20025;-83
2022/10/29 11:07:04;;;;;;;19.88;4.28;;;21.80;99.90;;;;;;5032502;28;20047;-83
2022/10/29 11:09:38;;;;;;;15.93;4.00;;;21.90;99.90;;;;;;5033084;28;20028;-83
2022/10/29 11:12:30;;;;;;;13.70;3.60;;;22.00;99.90;;;;;;5036250;28;20026;-83
2022/10/29 11:15:18;;;;;;;11.85;3.33;;;22.10;99.90;;;;;;5029389;28;20378;-83
2022/10/29 11:17:50;;;;;;;11.35;2.88;;;22.20;99.90;;;;;;5036665;28;20013;-82
2022/10/29 11:20:26;;;;;;;9.70;3.03;;;22.50;99.90;;;;;;5036996;28;20112;-83
2022/10/29 11:22:56;;;;;;;11.15;3.08;;;22.70;99.90;;;;;;5037552;28;20068;-83
2022/10/29 11:25:40;;;;;;;18.63;3.38;;;22.90;99.90;;;;;;5038091;28;20100;-82
2022/10/29 11:28:37;;;;;;;13.02;3.45;;;23.00;99.90;;;;;;5041397;28;20025;-83
2022/10/29 11:31:23;;;;;;;13.80;3.88;;;23.20;99.90;;;;;;5039512;28;20462;-83
2022/10/29 11:34:09;;;;;;;12.00;3.78;;;23.40;99.90;;;;;;5039055;28;20034;-84
2022/10/29 11:36:41;;;;;;;14.38;3.38;;;23.50;99.90;;;;;;5055782;28;20025;-83
2022/10/29 11:39:15;;;;;;;10.38;3.00;;;23.60;99.90;;;;;;5059743;28;20028;-83
2022/10/29 11:41:58;;;;;;;14.00;3.78;;;23.70;99.90;;;;;;5057033;28;20032;-82
2022/10/29 11:44:25;;;;;;;12.90;3.40;;;23.80;99.90;;;;;;5057180;28;20372;-83
2022/10/29 11:47:15;;;;;;;11.88;3.20;;;23.90;99.90;;;;;;5058665;28;20025;-83
2022/10/29 11:50:10;;;;;;;10.25;3.15;;;24.00;99.90;;;;;;5057955;28;20106;-82
2022/10/29 11:53:05;;;;;;;15.97;3.67;;;24.30;99.90;;;;;;5057611;28;20048;-82
2022/10/29 11:55:48;;;;;;;13.55;2.97;;;24.20;99.90;;;;;;5060738;28;20347;-83
2022/10/29 11:58:30;;;;;;;14.40;3.45;;;24.30;99.90;;;;;;5061321;28;20068;-83
2022/10/29 12:01:10;;;;;;;8.75;3.20;;;24.20;99.90;;;;;;5061161;28;20179;-83
2022/10/29 12:03:59;;;;;;;11.82;3.25;;;24.30;99.90;;;;;;5062829;28;20051;-84
2022/10/29 12:06:31;;;;;;;13.45;3.38;;;24.30;99.90;;;;;;5059778;28;20020;-83
2022/10/29 12:09:17;;;;;;;11.18;3.17;;;24.30;99.90;;;;;;5060606;28;20025;-83
2022/10/29 12:12:07;;;;;;;17.35;3.53;;;24.50;99.90;;;;;;5065598;28;20021;-82
2022/10/29 12:14:45;;;;;;;17.48;3.50;;;24.60;99.90;;;;;;5066730;28;20460;-82
2022/10/29 12:17:24;;;;;;;17.42;3.35;;;24.60;99.90;;;;;;5058500;28;20040;-80
2022/10/29 12:20:03;;;;;;;13.60;3.47;;;24.50;99.90;;;;;;5058499;28;20021;-83
2022/10/29 12:22:39;;;;;;;15.80;3.80;;;24.50;99.90;;;;;;5060090;28;20036;-82
2022/10/29 12:25:29;;;;;;;14.40;3.40;;;24.60;99.90;;;;;;5058853;28;20028;-78
2022/10/29 12:27:54;;;;;;;16.92;3.85;;;24.60;99.90;;;;;;5046223;28;20037;-76
2022/10/29 12:30:22;;;;;;;15.48;3.78;;;24.50;99.90;;;;;;5042813;28;20029;-77
2022/10/29 12:33:04;;;;;;;12.60;3.67;;;24.40;99.90;;;;;;5044372;28;20497;-77
2022/10/29 12:35:46;;;;;;;14.02;3.40;;;24.50;99.90;;;;;;5038468;28;20025;-76
2022/10/29 12:38:41;;;;;;;17.02;2.92;;;24.60;99.90;;;;;;5054269;28;20036;-78
2022/10/29 12:41:34;;;;;;;18.83;3.47;;;24.70;99.90;;;;;;5044365;28;20052;-77
2022/10/29 12:44:14;;;;;;;10.60;2.85;;;24.50;99.90;;;;;;5042665;28;20572;-84
2022/10/29 12:46:52;;;;;;;16.65;3.83;;;24.60;99.90;;;;;;5054001;28;20089;-84
2022/10/29 12:49:36;;;;;;;14.00;3.42;;;24.70;99.90;;;;;;5056512;28;20017;-83
2022/10/29 12:52:14;;;;;;;15.63;4.28;;;24.70;99.90;;;;;;5066503;28;20041;-83
2022/10/29 12:54:42;;;;;;;14.85;3.42;;;24.70;99.90;;;;;;5055459;28;20024;-83
2022/10/29 12:57:14;;;;;;;16.70;3.60;;;24.80;99.90;;;;;;5054607;28;20037;-77
2022/10/29 12:59:41;;;;;;;15.05;3.00;;;24.90;99.90;;;;;;5054183;28;20029;-78